Terminal Aerodrome Forecast
Issued by NWS

Home | Current Version | Previous Version | Graphics & Text | Print | Product List | Glossary On
Versions: 1 2 3 4 5 6 7 8 9 10 11 12 13 14 15 16 17 18
000
FTUS43 KTOP 251700
TAFFOE
TAF
KFOE 251720Z 2518/2618 33012G20KT P6SM BKN022
     FM260000 01010KT P6SM OVC012
     FM260400 04011KT 6SM BR OVC006=

USA.gov is the U.S. government's official web portal to all federal, state and local government web resources and services.